Time;durP1;ratioP1;P1;durP2;ratioP2;P2;SDS_P1;SDS_P2;PMS_P1;PMS_P2;Temp;Humidity;BMP_temperature;BMP_pressure;BME280_temperature;BME280_humidity;BME280_pressure;Samples;Min_cycle;Max_cycle;Signal;HPM_P1;HPM_P2
2022/06/20 00:00:08;;;;;;;13.63;2.33;;;;;;;;;;4975693;28;20118;-70
2022/06/20 00:02:35;;;;;;;9.45;1.92;;;;;;;;;;4969489;28;20038;-69
2022/06/20 00:05:01;;;;;;;14.35;2.40;;;;;;;;;;4968861;28;20042;-67
2022/06/20 00:07:26;;;;;;;13.95;2.45;;;;;;;;;;4970545;28;20045;-69
2022/06/20 00:09:51;;;;;;;11.98;2.10;;;;;;;;;;4972252;28;20037;-68
2022/06/20 00:12:22;;;;;;;13.15;2.25;;;;;;;;;;4970570;28;20030;-68
2022/06/20 00:14:52;;;;;;;11.50;1.98;;;;;;;;;;4968400;28;20037;-68
2022/06/20 00:17:17;;;;;;;9.98;2.20;;;;;;;;;;4970355;28;20033;-68
2022/06/20 00:19:43;;;;;;;12.70;3.05;;;;;;;;;;4960878;28;20042;-69
2022/06/20 00:22:09;;;;;;;8.90;2.20;;;;;;;;;;4953932;28;22524;-69
2022/06/20 00:24:34;;;;;;;10.60;2.28;;;;;;;;;;4954313;28;20034;-69
2022/06/20 00:26:59;;;;;;;8.48;2.10;;;;;;;;;;4958821;28;20035;-68
2022/06/20 00:29:25;;;;;;;11.32;2.35;;;;;;;;;;4954481;28;20034;-68
2022/06/20 00:31:52;;;;;;;10.90;2.05;;;;;;;;;;4942830;28;20042;-69
2022/06/20 00:34:20;;;;;;;9.70;1.88;;;;;;;;;;4968599;28;20038;-70
2022/06/20 00:36:48;;;;;;;8.48;1.65;;;;;;;;;;4953213;28;20034;-68
2022/06/20 00:39:13;;;;;;;7.95;1.80;;;;;;;;;;4954277;28;20038;-69
2022/06/20 00:41:38;;;;;;;7.90;1.90;;;;;;;;;;4954563;28;20049;-69
2022/06/20 00:44:04;;;;;;;12.35;1.60;;;;;;;;;;4951683;28;20038;-69
2022/06/20 00:46:36;;;;;;;11.77;2.00;;;;;;;;;;4957390;28;20734;-69
2022/06/20 00:49:10;;;;;;;9.10;1.90;;;;;;;;;;4953517;28;20604;-68
2022/06/20 00:51:54;;;;;;;9.23;1.90;;;;;;;;;;4973523;28;20442;-69
2022/06/20 00:54:27;;;;;;;11.43;1.83;;;;;;;;;;4966192;28;20172;-68
2022/06/20 00:56:55;;;;;;;11.52;2.30;;;;;;;;;;4973072;28;20034;-68
2022/06/20 00:59:23;;;;;;;11.00;1.73;;;;;;;;;;4972537;28;21005;-70
2022/06/20 01:01:49;;;;;;;11.55;1.67;;;;;;;;;;4978319;28;20072;-69
2022/06/20 01:04:22;;;;;;;8.80;1.83;;;;;;;;;;4970988;28;20156;-69
2022/06/20 01:06:50;;;;;;;8.02;1.63;;;;;;;;;;4972382;28;20030;-68
2022/06/20 01:09:18;;;;;;;11.13;1.92;;;;;;;;;;4966360;28;20034;-68
2022/06/20 01:11:44;;;;;;;11.93;2.10;;;;;;;;;;4955928;28;20120;-69
2022/06/20 01:14:28;;;;;;;7.68;1.67;;;;;;;;;;4953453;28;20030;-69
2022/06/20 01:16:56;;;;;;;13.63;2.05;;;;;;;;;;4953360;28;20883;-68
2022/06/20 01:19:32;;;;;;;9.27;1.90;;;;;;;;;;4967506;28;20124;-69
2022/06/20 01:21:59;;;;;;;12.88;2.30;;;;;;;;;;4959252;28;22333;-69
2022/06/20 01:24:27;;;;;;;10.40;1.98;;;;;;;;;;4961982;28;20175;-69
2022/06/20 01:27:07;;;;;;;11.10;2.08;;;;;;;;;;4952677;28;20034;-69
2022/06/20 01:29:32;;;;;;;14.93;2.13;;;;;;;;;;4953203;28;20046;-68
2022/06/20 01:31:58;;;;;;;6.78;2.13;;;;;;;;;;4952119;28;20053;-69
2022/06/20 01:34:24;;;;;;;15.50;2.20;;;;;;;;;;4952606;28;20110;-68
2022/06/20 01:39:44;;;;;;;8.70;2.10;;;;;;;;;;4957399;28;22373;-68
2022/06/20 01:42:19;;;;;;;12.52;2.67;;;;;;;;;;4954163;28;20039;-70
2022/06/20 01:44:56;;;;;;;7.53;2.20;;;;;;;;;;4951656;28;20042;-71
2022/06/20 01:47:22;;;;;;;9.77;2.03;;;;;;;;;;4953516;28;20051;-71
2022/06/20 01:49:49;;;;;;;11.20;2.55;;;;;;;;;;4952559;28;20714;-70
2022/06/20 01:52:23;;;;;;;10.90;2.03;;;;;;;;;;4952823;28;20027;-70
2022/06/20 01:54:51;;;;;;;15.10;2.47;;;;;;;;;;4966691;28;22565;-71
2022/06/20 01:57:17;;;;;;;10.40;2.35;;;;;;;;;;4952423;28;20845;-69
2022/06/20 02:00:04;;;;;;;10.05;2.35;;;;;;;;;;4952353;28;20169;-69
2022/06/20 02:02:34;;;;;;;14.68;2.70;;;;;;;;;;4953388;28;20032;-69
2022/06/20 02:05:01;;;;;;;15.07;2.53;;;;;;;;;;4951786;28;20054;-70
2022/06/20 02:07:30;;;;;;;14.38;2.67;;;;;;;;;;4952716;28;20037;-70
2022/06/20 02:09:58;;;;;;;8.80;2.33;;;;;;;;;;4953106;28;20040;-70
2022/06/20 02:12:24;;;;;;;11.43;2.50;;;;;;;;;;4951642;28;20037;-69
2022/06/20 02:14:55;;;;;;;8.98;2.10;;;;;;;;;;4958074;28;20041;-70
2022/06/20 02:17:27;;;;;;;12.50;2.20;;;;;;;;;;4971076;28;20038;-69
2022/06/20 02:19:53;;;;;;;11.05;2.47;;;;;;;;;;4968823;28;20041;-70
2022/06/20 02:22:20;;;;;;;10.52;2.70;;;;;;;;;;4971323;28;20037;-70
2022/06/20 02:24:47;;;;;;;10.05;2.42;;;;;;;;;;4976603;28;20041;-69
2022/06/20 02:27:24;;;;;;;13.07;2.40;;;;;;;;;;4970909;28;20033;-70
2022/06/20 02:29:50;;;;;;;7.80;1.90;;;;;;;;;;4971247;28;20030;-69
2022/06/20 02:32:18;;;;;;;8.98;2.40;;;;;;;;;;4976026;28;20041;-70
2022/06/20 02:34:44;;;;;;;13.52;3.00;;;;;;;;;;4970810;28;20149;-70
2022/06/20 02:37:13;;;;;;;13.55;2.95;;;;;;;;;;4970545;28;21626;-70
2022/06/20 02:39:41;;;;;;;13.48;2.90;;;;;;;;;;4970759;28;20041;-70
2022/06/20 02:42:09;;;;;;;9.43;2.45;;;;;;;;;;4970753;28;20038;-70
2022/06/20 02:44:38;;;;;;;9.75;2.75;;;;;;;;;;4970742;28;20034;-70
2022/06/20 02:47:04;;;;;;;13.00;3.00;;;;;;;;;;4971202;28;20037;-71
2022/06/20 02:49:31;;;;;;;11.85;3.10;;;;;;;;;;4969582;28;20136;-70
2022/06/20 02:51:57;;;;;;;14.18;3.80;;;;;;;;;;4970969;28;20049;-71
2022/06/20 02:54:25;;;;;;;16.67;3.67;;;;;;;;;;4970978;28;20154;-70
2022/06/20 02:56:54;;;;;;;17.20;3.40;;;;;;;;;;4976979;28;20038;-70
2022/06/20 02:59:39;;;;;;;13.32;3.33;;;;;;;;;;4972083;28;20057;-70
2022/06/20 03:02:09;;;;;;;13.77;3.60;;;;;;;;;;4970498;28;20461;-70
2022/06/20 03:04:36;;;;;;;10.82;3.30;;;;;;;;;;4970880;28;20030;-70
2022/06/20 03:07:03;;;;;;;13.15;3.30;;;;;;;;;;4971349;28;20046;-69
2022/06/20 03:09:34;;;;;;;12.13;3.78;;;;;;;;;;4970178;28;20026;-71
2022/06/20 03:12:00;;;;;;;13.13;3.70;;;;;;;;;;4971473;28;20783;-69
2022/06/20 03:14:33;;;;;;;18.02;4.50;;;;;;;;;;4970867;28;20065;-68
2022/06/20 03:16:58;;;;;;;17.55;3.63;;;;;;;;;;4971462;28;20091;-69
2022/06/20 03:19:26;;;;;;;14.98;3.63;;;;;;;;;;4970376;28;20037;-70
2022/06/20 03:21:52;;;;;;;13.65;3.47;;;;;;;;;;4968716;28;20034;-70
2022/06/20 03:24:18;;;;;;;14.38;3.60;;;;;;;;;;4970577;28;20084;-71
2022/06/20 03:26:44;;;;;;;13.80;3.50;;;;;;;;;;4970145;28;20825;-70
2022/06/20 03:29:14;;;;;;;13.90;3.70;;;;;;;;;;4970631;28;20103;-69
2022/06/20 03:31:39;;;;;;;15.43;3.95;;;;;;;;;;4984757;28;20135;-69
2022/06/20 03:34:07;;;;;;;15.77;3.70;;;;;;;;;;4970622;28;20042;-70
2022/06/20 03:36:34;;;;;;;16.58;3.72;;;;;;;;;;4952173;28;20154;-70
2022/06/20 03:38:59;;;;;;;11.32;3.03;;;;;;;;;;4950425;28;20937;-68
2022/06/20 03:41:26;;;;;;;12.18;3.40;;;;;;;;;;4951568;28;20053;-69
2022/06/20 03:43:55;;;;;;;13.73;3.63;;;;;;;;;;4950917;28;20038;-69
2022/06/20 03:46:25;;;;;;;10.38;3.20;;;;;;;;;;4949992;28;20038;-68
2022/06/20 03:48:57;;;;;;;22.08;3.45;;;;;;;;;;4955377;28;20120;-68
2022/06/20 03:51:26;;;;;;;14.38;3.30;;;;;;;;;;4950283;28;20071;-70
2022/06/20 03:54:02;;;;;;;11.48;2.92;;;;;;;;;;4950517;28;20046;-70
2022/06/20 03:56:35;;;;;;;14.50;3.35;;;;;;;;;;4954125;28;20076;-70
2022/06/20 03:59:17;;;;;;;14.85;3.47;;;;;;;;;;4956235;28;20152;-71
2022/06/20 04:01:48;;;;;;;13.05;3.47;;;;;;;;;;4956752;28;20042;-69
2022/06/20 04:04:21;;;;;;;17.42;3.45;;;;;;;;;;4953332;28;20039;-68
2022/06/20 04:07:01;;;;;;;15.15;3.25;;;;;;;;;;4955022;28;20038;-71
2022/06/20 04:12:21;;;;;;;9.05;3.05;;;;;;;;;;4954485;28;19924;-69
2022/06/20 04:15:03;;;;;;;14.27;3.40;;;;;;;;;;4954270;28;20837;-70
2022/06/20 04:20:22;;;;;;;16.73;4.60;;;;;;;;;;4971946;28;20042;-70
2022/06/20 04:22:50;;;;;;;16.67;3.92;;;;;;;;;;4958637;28;20127;-70
2022/06/20 04:25:16;;;;;;;16.40;4.00;;;;;;;;;;4953376;28;20034;-70
2022/06/20 04:27:53;;;;;;;16.10;3.83;;;;;;;;;;4955421;28;20034;-68
2022/06/20 04:30:29;;;;;;;17.40;4.03;;;;;;;;;;4953668;28;21183;-68
2022/06/20 04:32:58;;;;;;;18.63;4.63;;;;;;;;;;4954199;28;20037;-68
2022/06/20 04:35:32;;;;;;;19.25;4.25;;;;;;;;;;4955706;28;20045;-68
2022/06/20 04:38:01;;;;;;;18.77;4.45;;;;;;;;;;4952498;28;20050;-70
2022/06/20 04:40:38;;;;;;;21.63;4.55;;;;;;;;;;4953419;28;20168;-70
2022/06/20 04:43:23;;;;;;;16.25;4.15;;;;;;;;;;4954438;28;21254;-66
2022/06/20 04:45:57;;;;;;;17.67;5.10;;;;;;;;;;4952193;28;20060;-69
2022/06/20 04:48:24;;;;;;;20.48;4.53;;;;;;;;;;4953653;28;20068;-67
2022/06/20 04:50:51;;;;;;;16.08;4.30;;;;;;;;;;4954289;28;20892;-68
2022/06/20 04:53:19;;;;;;;19.05;4.15;;;;;;;;;;4961446;28;20038;-68
2022/06/20 04:55:46;;;;;;;14.75;3.70;;;;;;;;;;4958781;28;20125;-68
2022/06/20 04:58:16;;;;;;;13.93;3.42;;;;;;;;;;4954090;28;20069;-69
2022/06/20 05:00:42;;;;;;;16.77;3.80;;;;;;;;;;4953333;28;20049;-68
2022/06/20 05:03:16;;;;;;;18.42;3.35;;;;;;;;;;4953579;28;20045;-67
2022/06/20 05:05:46;;;;;;;14.18;3.45;;;;;;;;;;4952736;28;20042;-68
2022/06/20 05:08:12;;;;;;;13.98;3.60;;;;;;;;;;4953669;28;21229;-68
2022/06/20 05:10:45;;;;;;;16.23;3.85;;;;;;;;;;4961222;28;20034;-68
2022/06/20 05:13:14;;;;;;;12.23;3.10;;;;;;;;;;4956693;28;20030;-69
2022/06/20 05:15:43;;;;;;;14.70;3.38;;;;;;;;;;4967003;28;20067;-68
2022/06/20 05:18:32;;;;;;;15.45;3.40;;;;;;;;;;4953424;28;20130;-67
2022/06/20 05:21:01;;;;;;;15.00;3.17;;;;;;;;;;4967427;28;20046;-69
2022/06/20 05:23:35;;;;;;;9.90;2.80;;;;;;;;;;4953271;28;20045;-67
2022/06/20 05:26:02;;;;;;;11.60;2.90;;;;;;;;;;4967530;28;20116;-67
2022/06/20 05:28:28;;;;;;;16.33;3.17;;;;;;;;;;4952283;28;20125;-68
2022/06/20 05:30:54;;;;;;;16.33;3.78;;;;;;;;;;4952082;28;20030;-67
2022/06/20 05:33:20;;;;;;;14.77;3.30;;;;;;;;;;4952792;28;20090;-68
2022/06/20 05:35:49;;;;;;;17.17;3.35;;;;;;;;;;4952659;28;20033;-68
2022/06/20 05:38:18;;;;;;;14.30;3.50;;;;;;;;;;4951795;28;20050;-67
2022/06/20 05:40:47;;;;;;;9.95;2.75;;;;;;;;;;4955969;28;20061;-67
2022/06/20 05:43:22;;;;;;;12.18;2.90;;;;;;;;;;4952307;28;20039;-68
2022/06/20 05:45:51;;;;;;;15.13;2.97;;;;;;;;;;4953938;28;20066;-67
2022/06/20 05:48:26;;;;;;;10.32;2.70;;;;;;;;;;4953064;28;20129;-69
2022/06/20 05:50:55;;;;;;;11.27;2.80;;;;;;;;;;4951173;28;20883;-69
2022/06/20 05:53:24;;;;;;;13.23;2.90;;;;;;;;;;4958268;28;20049;-68
2022/06/20 05:55:50;;;;;;;14.57;2.95;;;;;;;;;;4950816;28;20023;-67
2022/06/20 05:58:20;;;;;;;15.52;3.50;;;;;;;;;;4953732;28;20563;-68
2022/06/20 06:00:46;;;;;;;16.90;3.40;;;;;;;;;;4964234;28;21920;-69
2022/06/20 06:03:23;;;;;;;15.13;3.40;;;;;;;;;;4952579;28;20045;-69
2022/06/20 06:05:54;;;;;;;13.93;3.22;;;;;;;;;;4951016;28;20083;-68
2022/06/20 06:08:26;;;;;;;10.00;2.53;;;;;;;;;;4951017;28;20037;-68
2022/06/20 06:11:01;;;;;;;11.85;3.13;;;;;;;;;;4952486;28;20973;-68
2022/06/20 06:13:36;;;;;;;16.55;3.22;;;;;;;;;;4949617;28;20987;-69
2022/06/20 06:19:14;;;;;;;14.20;3.00;;;;;;;;;;4949377;28;20042;-68
2022/06/20 06:21:43;;;;;;;9.10;2.90;;;;;;;;;;4941450;28;20446;-69
2022/06/20 06:24:12;;;;;;;14.23;3.15;;;;;;;;;;4962300;28;20173;-68
2022/06/20 06:26:40;;;;;;;17.60;3.63;;;;;;;;;;4956819;28;20050;-68
2022/06/20 06:29:11;;;;;;;14.02;3.00;;;;;;;;;;4949953;28;20533;-69
2022/06/20 06:31:41;;;;;;;14.87;3.53;;;;;;;;;;4948654;28;20521;-69
2022/06/20 06:34:19;;;;;;;11.50;3.15;;;;;;;;;;4949429;28;20278;-70
2022/06/20 06:36:48;;;;;;;12.35;3.15;;;;;;;;;;4982161;28;21702;-69
2022/06/20 06:39:21;;;;;;;18.05;3.50;;;;;;;;;;4981972;28;20662;-69
2022/06/20 06:41:57;;;;;;;13.18;2.70;;;;;;;;;;4968417;28;20069;-70
2022/06/20 06:44:22;;;;;;;13.25;3.13;;;;;;;;;;4982045;28;20136;-69
2022/06/20 06:46:51;;;;;;;8.38;2.35;;;;;;;;;;4967935;28;20081;-68
2022/06/20 06:49:29;;;;;;;11.80;3.15;;;;;;;;;;4968373;28;20339;-68
2022/06/20 06:51:58;;;;;;;13.38;3.00;;;;;;;;;;4967275;28;20541;-69
2022/06/20 06:54:46;;;;;;;10.27;2.88;;;;;;;;;;4968973;28;20170;-71
2022/06/20 06:57:18;;;;;;;15.77;3.10;;;;;;;;;;4962857;28;20040;-70
2022/06/20 06:59:50;;;;;;;11.02;2.78;;;;;;;;;;4970955;28;20956;-70
2022/06/20 07:02:20;;;;;;;13.27;2.83;;;;;;;;;;4971120;28;20030;-70
2022/06/20 07:04:55;;;;;;;11.88;2.80;;;;;;;;;;4969759;28;20029;-70
2022/06/20 07:07:23;;;;;;;9.82;2.50;;;;;;;;;;4985529;28;20030;-70
2022/06/20 07:09:50;;;;;;;10.60;2.92;;;;;;;;;;4977939;28;20063;-69
2022/06/20 07:12:34;;;;;;;13.82;2.80;;;;;;;;;;4957544;28;20026;-70
2022/06/20 07:15:06;;;;;;;14.45;3.17;;;;;;;;;;4971095;28;20041;-70
2022/06/20 07:17:54;;;;;;;8.48;2.20;;;;;;;;;;4954062;28;20041;-70
2022/06/20 07:20:21;;;;;;;12.52;2.20;;;;;;;;;;4950987;28;20096;-69
2022/06/20 07:22:48;;;;;;;8.57;2.60;;;;;;;;;;4947879;28;20191;-69
2022/06/20 07:25:16;;;;;;;12.32;2.97;;;;;;;;;;4962530;28;20729;-72
2022/06/20 07:27:46;;;;;;;10.55;2.50;;;;;;;;;;4947462;28;20053;-71
2022/06/20 07:30:14;;;;;;;9.40;2.33;;;;;;;;;;4948257;28;20678;-69
2022/06/20 07:32:41;;;;;;;8.02;2.45;;;;;;;;;;4954023;28;20133;-70
2022/06/20 07:35:10;;;;;;;9.65;2.63;;;;;;;;;;4952434;28;20113;-70
2022/06/20 07:37:38;;;;;;;10.27;2.30;;;;;;;;;;4951579;28;20027;-70
2022/06/20 07:40:11;;;;;;;13.23;2.30;;;;;;;;;;4951660;28;20283;-68
2022/06/20 07:42:42;;;;;;;11.13;2.58;;;;;;;;;;4954221;28;20867;-70
2022/06/20 07:45:10;;;;;;;15.15;2.80;;;;;;;;;;4969576;28;20026;-73
2022/06/20 07:47:54;;;;;;;10.43;2.53;;;;;;;;;;4955186;28;20767;-70
2022/06/20 07:50:22;;;;;;;10.23;2.10;;;;;;;;;;4976243;28;20033;-70
2022/06/20 07:52:48;;;;;;;10.88;2.60;;;;;;;;;;4972678;28;20874;-70
2022/06/20 07:55:15;;;;;;;11.82;2.60;;;;;;;;;;4974595;28;20061;-70
2022/06/20 07:57:44;;;;;;;10.32;2.72;;;;;;;;;;4973563;28;20145;-70
2022/06/20 08:00:22;;;;;;;11.98;2.67;;;;;;;;;;4961290;28;20038;-71
2022/06/20 08:02:47;;;;;;;11.68;2.83;;;;;;;;;;4967131;28;20054;-69
2022/06/20 08:05:14;;;;;;;11.15;2.60;;;;;;;;;;4973324;28;20847;-68
2022/06/20 08:07:42;;;;;;;13.68;2.40;;;;;;;;;;4972464;28;20045;-70
2022/06/20 08:10:10;;;;;;;15.43;2.92;;;;;;;;;;4972563;28;20152;-69
2022/06/20 08:12:41;;;;;;;11.05;2.65;;;;;;;;;;4961551;28;20216;-70
2022/06/20 08:15:08;;;;;;;;;;;;;;;;;;4952712;28;20731;-70
2022/06/20 08:17:34;;;;;;;10.27;2.67;;;;;;;;;;4951130;28;19922;-69
2022/06/20 08:19:59;;;;;;;14.18;2.72;;;;;;;;;;4950959;28;20750;-70
2022/06/20 08:22:29;;;;;;;14.38;3.00;;;;;;;;;;4951923;28;20509;-71
2022/06/20 08:24:56;;;;;;;11.77;2.63;;;;;;;;;;4961620;28;20026;-70
2022/06/20 08:27:29;;;;;;;11.45;2.47;;;;;;;;;;4954023;28;20875;-69
2022/06/20 08:30:17;;;;;;;13.02;2.53;;;;;;;;;;4952750;28;20052;-69
2022/06/20 08:33:02;;;;;;;7.93;2.50;;;;;;;;;;4945790;28;20030;-70
2022/06/20 08:35:47;;;;;;;13.32;2.03;;;;;;;;;;4970759;28;20036;-70
2022/06/20 08:38:15;;;;;;;12.52;2.60;;;;;;;;;;4971749;28;20112;-69
2022/06/20 08:41:01;;;;;;;11.15;2.25;;;;;;;;;;4985860;28;20549;-68
2022/06/20 08:43:49;;;;;;;10.07;2.00;;;;;;;;;;4970044;28;20044;-67
2022/06/20 08:46:33;;;;;;;11.52;2.50;;;;;;;;;;4972424;28;20038;-70
2022/06/20 08:49:13;;;;;;;13.95;2.97;;;;;;;;;;4971984;28;20125;-71
2022/06/20 08:51:40;;;;;;;11.10;2.83;;;;;;;;;;4972581;28;22424;-70
2022/06/20 08:54:13;;;;;;;15.98;2.90;;;;;;;;;;4972730;28;20037;-68
2022/06/20 08:56:38;;;;;;;8.10;2.70;;;;;;;;;;4988273;28;20129;-69
2022/06/20 08:59:29;;;;;;;12.25;2.42;;;;;;;;;;4974329;28;20076;-68
2022/06/20 09:02:15;;;;;;;13.30;2.57;;;;;;;;;;4972796;28;20044;-69
2022/06/20 09:04:56;;;;;;;14.38;2.40;;;;;;;;;;4956867;28;20239;-69
2022/06/20 09:07:51;;;;;;;12.10;2.35;;;;;;;;;;4973729;28;20757;-70
2022/06/20 09:10:16;;;;;;;14.70;2.70;;;;;;;;;;4960311;28;20402;-69
2022/06/20 09:13:03;;;;;;;12.80;2.58;;;;;;;;;;4972911;28;20037;-70
2022/06/20 09:15:50;;;;;;;14.25;2.30;;;;;;;;;;4973996;28;21236;-72
2022/06/20 09:18:34;;;;;;;8.77;2.00;;;;;;;;;;4986199;28;20030;-72
2022/06/20 09:21:07;;;;;;;12.75;2.65;;;;;;;;;;4988300;28;20053;-71
2022/06/20 09:23:32;;;;;;;15.63;2.72;;;;;;;;;;4972141;28;20046;-69
2022/06/20 09:26:04;;;;;;;17.77;3.17;;;;;;;;;;4972634;28;20050;-72
2022/06/20 09:28:38;;;;;;;11.38;2.40;;;;;;;;;;4973472;28;20242;-67
2022/06/20 09:31:09;;;;;;;11.80;2.15;;;;;;;;;;4972141;28;20764;-72
2022/06/20 09:33:38;;;;;;;9.73;2.65;;;;;;;;;;4972328;28;20061;-70
2022/06/20 09:36:12;;;;;;;15.23;2.30;;;;;;;;;;4971795;28;20038;-71
2022/06/20 09:38:46;;;;;;;12.95;2.70;;;;;;;;;;4971618;28;20052;-72
2022/06/20 09:41:11;;;;;;;;;;;;;;;;;;4973121;28;20038;-72
2022/06/20 09:43:44;;;;;;;9.47;2.10;;;;;;;;;;4986830;28;20020;-72
2022/06/20 09:46:29;;;;;;;10.25;2.25;;;;;;;;;;4972330;28;20056;-71
2022/06/20 09:49:12;;;;;;;16.33;3.08;;;;;;;;;;4965110;28;20038;-72
2022/06/20 09:51:50;;;;;;;12.50;2.30;;;;;;;;;;4951961;28;20034;-72
2022/06/20 09:54:37;;;;;;;13.45;2.60;;;;;;;;;;4952176;28;20029;-73
2022/06/20 09:57:09;;;;;;;12.77;2.67;;;;;;;;;;4973074;28;20088;-67
2022/06/20 09:59:34;;;;;;;15.90;2.67;;;;;;;;;;4969504;28;20033;-66
2022/06/20 10:02:02;;;;;;;12.00;2.80;;;;;;;;;;4950941;28;20045;-67
2022/06/20 10:04:35;;;;;;;9.38;2.70;;;;;;;;;;4949321;28;20495;-66
2022/06/20 10:07:07;;;;;;;11.30;2.38;;;;;;;;;;4947240;28;20037;-68
2022/06/20 10:09:37;;;;;;;10.10;2.97;;;;;;;;;;4949315;28;20058;-67
2022/06/20 10:12:09;;;;;;;11.32;2.55;;;;;;;;;;4949055;28;20085;-66
2022/06/20 10:14:44;;;;;;;12.57;2.75;;;;;;;;;;4948749;28;20038;-65
2022/06/20 10:17:42;;;;;;;11.73;2.88;;;;;;;;;;4948992;28;20038;-67
2022/06/20 10:20:19;;;;;;;11.27;3.00;;;;;;;;;;4940945;28;20386;-66
2022/06/20 10:23:03;;;;;;;12.23;2.85;;;;;;;;;;4964953;28;20121;-67
2022/06/20 10:25:36;;;;;;;18.98;3.33;;;;;;;;;;4964399;28;20117;-67
2022/06/20 10:28:10;;;;;;;14.43;2.90;;;;;;;;;;4951052;28;20077;-67
2022/06/20 10:30:38;;;;;;;12.30;3.00;;;;;;;;;;4949163;28;20034;-67
2022/06/20 10:33:09;;;;;;;9.38;3.00;;;;;;;;;;4968040;28;20034;-68
2022/06/20 10:35:41;;;;;;;16.23;2.95;;;;;;;;;;4968008;28;20420;-66
2022/06/20 10:38:22;;;;;;;14.20;2.95;;;;;;;;;;4968491;28;20494;-67
2022/06/20 10:41:08;;;;;;;10.57;2.70;;;;;;;;;;4983569;28;20314;-68
2022/06/20 10:43:40;;;;;;;14.23;3.20;;;;;;;;;;4948081;28;20427;-67
2022/06/20 10:46:11;;;;;;;15.75;3.40;;;;;;;;;;4962754;28;20655;-67
2022/06/20 10:48:56;;;;;;;14.13;3.00;;;;;;;;;;4949182;28;20319;-68
2022/06/20 10:51:33;;;;;;;19.30;3.70;;;;;;;;;;4968175;28;20041;-68
2022/06/20 10:54:10;;;;;;;13.65;3.22;;;;;;;;;;4967922;28;20037;-67
2022/06/20 10:56:51;;;;;;;14.75;3.30;;;;;;;;;;4965334;28;20048;-67
2022/06/20 10:59:19;;;;;;;14.93;3.10;;;;;;;;;;4967553;28;20409;-67
2022/06/20 11:01:57;;;;;;;18.17;3.20;;;;;;;;;;4967737;28;20049;-67
2022/06/20 11:04:26;;;;;;;17.88;3.28;;;;;;;;;;4967080;28;20046;-68
2022/06/20 11:07:02;;;;;;;17.25;3.22;;;;;;;;;;4967931;28;20737;-68
2022/06/20 11:09:27;;;;;;;15.32;3.10;;;;;;;;;;4967319;28;20387;-69
2022/06/20 11:11:58;;;;;;;19.67;3.17;;;;;;;;;;4985152;28;20045;-68
2022/06/20 11:14:31;;;;;;;20.02;3.35;;;;;;;;;;4967132;28;20100;-70
2022/06/20 11:16:56;;;;;;;14.43;2.92;;;;;;;;;;4952969;28;20656;-70
2022/06/20 11:19:45;;;;;;;14.10;2.85;;;;;;;;;;4960381;28;20045;-68
2022/06/20 11:22:29;;;;;;;11.52;2.53;;;;;;;;;;4944186;28;20065;-69
2022/06/20 11:25:09;;;;;;;11.68;2.72;;;;;;;;;;4984874;28;20029;-67
2022/06/20 11:27:34;;;;;;;10.00;2.22;;;;;;;;;;4970577;28;20212;-68
2022/06/20 11:30:07;;;;;;;11.90;2.60;;;;;;;;;;4969259;28;20037;-70
2022/06/20 11:32:41;;;;;;;18.08;3.45;;;;;;;;;;4973917;28;20112;-69
2022/06/20 11:35:06;;;;;;;18.75;3.00;;;;;;;;;;4970446;28;20878;-68
2022/06/20 11:37:51;;;;;;;16.88;2.75;;;;;;;;;;4958855;28;20045;-68
2022/06/20 11:40:25;;;;;;;15.13;2.33;;;;;;;;;;4962380;28;20046;-69
2022/06/20 11:42:50;;;;;;;12.60;2.67;;;;;;;;;;4949882;28;20034;-69
2022/06/20 11:45:25;;;;;;;12.05;2.58;;;;;;;;;;4951199;28;20042;-70
2022/06/20 11:48:05;;;;;;;13.23;2.10;;;;;;;;;;4970447;28;20029;-70
2022/06/20 11:50:36;;;;;;;13.30;2.35;;;;;;;;;;4956271;28;20663;-70
2022/06/20 11:53:20;;;;;;;6.10;1.70;;;;;;;;;;4951575;28;20149;-70
2022/06/20 11:55:54;;;;;;;10.02;2.13;;;;;;;;;;4952603;28;20041;-71
2022/06/20 11:58:44;;;;;;;10.35;2.22;;;;;;;;;;4952767;28;20062;-73
2022/06/20 12:01:12;;;;;;;13.07;2.25;;;;;;;;;;4950831;28;20049;-72
2022/06/20 12:03:41;;;;;;;12.23;2.10;;;;;;;;;;4950725;28;20038;-72
2022/06/20 12:06:07;;;;;;;10.63;2.10;;;;;;;;;;4950557;28;20043;-68
2022/06/20 12:08:40;;;;;;;12.23;2.70;;;;;;;;;;4952148;28;20034;-71
2022/06/20 12:11:07;;;;;;;10.88;2.50;;;;;;;;;;4954415;28;20121;-68
2022/06/20 12:13:48;;;;;;;13.50;2.20;;;;;;;;;;4951579;28;20038;-69
2022/06/20 12:16:37;;;;;;;17.58;2.42;;;;;;;;;;4952028;28;20041;-71
2022/06/20 12:24:37;;;;;;;11.77;2.42;;;;;;;;;;4958145;28;20046;-67
2022/06/20 12:27:02;;;;;;;15.65;2.50;;;;;;;;;;4959810;28;20042;-70
2022/06/20 12:29:31;;;;;;;16.02;2.55;;;;;;;;;;4958226;28;21097;-71
2022/06/20 12:32:00;;;;;;;11.07;2.58;;;;;;;;;;4960314;28;20966;-68
2022/06/20 12:34:28;;;;;;;10.45;2.20;;;;;;;;;;4977087;28;20040;-67
2022/06/20 12:36:59;;;;;;;10.52;2.05;;;;;;;;;;4973574;28;20033;-71
2022/06/20 12:39:25;;;;;;;;;;;;;;;;;;4965745;28;20093;-71
2022/06/20 12:42:16;;;;;;;13.40;2.42;;;;;;;;;;4953975;28;19940;-70
2022/06/20 12:44:56;;;;;;;16.98;2.88;;;;;;;;;;4955576;28;20042;-70
2022/06/20 12:47:37;;;;;;;10.35;2.40;;;;;;;;;;4955768;28;20929;-71
2022/06/20 12:50:05;;;;;;;14.02;2.88;;;;;;;;;;4953914;28;20045;-70
2022/06/20 12:52:36;;;;;;;17.98;2.80;;;;;;;;;;4952882;28;20050;-68
2022/06/20 12:55:13;;;;;;;12.05;2.20;;;;;;;;;;4953666;28;20031;-70
2022/06/20 12:57:49;;;;;;;12.02;2.67;;;;;;;;;;4954086;28;20030;-67
2022/06/20 13:00:33;;;;;;;12.77;2.38;;;;;;;;;;4954395;28;20042;-69
2022/06/20 13:02:58;;;;;;;15.25;2.85;;;;;;;;;;4987381;28;20026;-68
2022/06/20 13:05:42;;;;;;;12.90;2.40;;;;;;;;;;4973642;28;20132;-68
2022/06/20 13:08:15;;;;;;;20.63;2.90;;;;;;;;;;4972529;28;20045;-71
2022/06/20 13:11:00;;;;;;;14.18;2.50;;;;;;;;;;4972619;28;20032;-69
2022/06/20 13:13:40;;;;;;;12.52;2.60;;;;;;;;;;4986618;28;20057;-68
2022/06/20 13:16:24;;;;;;;11.48;2.70;;;;;;;;;;4972077;28;20794;-68
2022/06/20 13:19:10;;;;;;;10.60;2.67;;;;;;;;;;4972757;28;20040;-69
2022/06/20 13:22:11;;;;;;;12.20;2.40;;;;;;;;;;4980464;28;20689;-68
2022/06/20 13:24:42;;;;;;;10.88;2.50;;;;;;;;;;4915986;28;20066;-67
2022/06/20 13:27:25;;;;;;;10.68;2.15;;;;;;;;;;4955857;28;20038;-68
2022/06/20 13:30:00;;;;;;;10.50;2.55;;;;;;;;;;4970070;28;20759;-67
2022/06/20 13:32:32;;;;;;;12.90;2.20;;;;;;;;;;4966963;28;20063;-67
2022/06/20 13:35:17;;;;;;;15.85;2.67;;;;;;;;;;4981336;28;20034;-69
2022/06/20 13:37:49;;;;;;;14.90;2.63;;;;;;;;;;4966707;28;20049;-67
2022/06/20 13:40:37;;;;;;;17.02;2.58;;;;;;;;;;4980845;28;20490;-67
2022/06/20 13:43:28;;;;;;;14.70;2.90;;;;;;;;;;4966307;28;20541;-67
2022/06/20 13:45:59;;;;;;;12.40;2.13;;;;;;;;;;4932941;28;20097;-67
2022/06/20 13:48:28;;;;;;;13.32;2.50;;;;;;;;;;4946929;28;20031;-66
2022/06/20 13:51:09;;;;;;;14.32;2.40;;;;;;;;;;4946880;28;20056;-67
2022/06/20 13:53:37;;;;;;;16.58;2.67;;;;;;;;;;4961145;28;20350;-67
2022/06/20 13:56:18;;;;;;;12.60;2.60;;;;;;;;;;4946301;28;20436;-66
2022/06/20 13:58:48;;;;;;;12.93;2.58;;;;;;;;;;4952151;28;20460;-65
2022/06/20 14:01:15;;;;;;;9.20;2.35;;;;;;;;;;4952416;28;20431;-67
2022/06/20 14:03:47;;;;;;;12.60;2.00;;;;;;;;;;4948371;28;22376;-66
2022/06/20 14:06:15;;;;;;;10.20;2.20;;;;;;;;;;4963557;28;20045;-66
2022/06/20 14:08:47;;;;;;;10.93;1.85;;;;;;;;;;4948732;28;20049;-67
2022/06/20 14:11:47;;;;;;;11.88;2.70;;;;;;;;;;4953261;28;20088;-67
2022/06/20 14:14:22;;;;;;;7.93;1.90;;;;;;;;;;4957601;28;20220;-66
2022/06/20 14:16:48;;;;;;;10.55;2.58;;;;;;;;;;4950442;28;20441;-67
2022/06/20 14:19:16;;;;;;;17.70;2.70;;;;;;;;;;4951969;28;20108;-68
2022/06/20 14:21:45;;;;;;;7.05;1.98;;;;;;;;;;4966781;28;20042;-68
2022/06/20 14:24:17;;;;;;;14.63;2.35;;;;;;;;;;4950904;28;20848;-69
2022/06/20 14:26:44;;;;;;;10.77;2.20;;;;;;;;;;4951524;28;21094;-67
2022/06/20 14:29:22;;;;;;;9.38;1.90;;;;;;;;;;4952302;28;20036;-70
2022/06/20 14:31:56;;;;;;;10.27;2.05;;;;;;;;;;4957602;28;20042;-69
2022/06/20 14:34:25;;;;;;;9.70;2.10;;;;;;;;;;4952327;28;20030;-69
2022/06/20 14:37:19;;;;;;;10.95;2.30;;;;;;;;;;4952813;28;20042;-72
2022/06/20 14:39:49;;;;;;;9.98;2.15;;;;;;;;;;4951798;28;20853;-69
2022/06/20 14:42:18;;;;;;;12.52;2.30;;;;;;;;;;4952539;28;20103;-70
2022/06/20 14:44:57;;;;;;;14.63;2.50;;;;;;;;;;4953488;28;20039;-68
2022/06/20 14:47:31;;;;;;;12.90;2.13;;;;;;;;;;4953209;28;20096;-68
2022/06/20 14:50:17;;;;;;;15.88;2.92;;;;;;;;;;4955754;28;20034;-69
2022/06/20 14:52:48;;;;;;;10.82;2.47;;;;;;;;;;4956540;28;20849;-70
2022/06/20 14:55:22;;;;;;;15.27;2.83;;;;;;;;;;4967354;28;20039;-66
2022/06/20 14:57:50;;;;;;;9.05;2.20;;;;;;;;;;4953259;28;20033;-70
2022/06/20 15:00:32;;;;;;;14.57;2.55;;;;;;;;;;4952359;28;20070;-69
2022/06/20 15:03:01;;;;;;;11.48;2.42;;;;;;;;;;4951714;28;20041;-66
2022/06/20 15:05:49;;;;;;;10.07;2.28;;;;;;;;;;4950565;28;20841;-68
2022/06/20 15:08:18;;;;;;;9.57;2.75;;;;;;;;;;4951372;28;20136;-68
2022/06/20 15:11:02;;;;;;;12.82;3.00;;;;;;;;;;4950331;28;20109;-66
2022/06/20 15:13:41;;;;;;;11.77;2.80;;;;;;;;;;4970304;28;21013;-67
2022/06/20 15:16:15;;;;;;;8.93;2.28;;;;;;;;;;4973094;28;20751;-68
2022/06/20 15:19:02;;;;;;;12.48;3.22;;;;;;;;;;4975219;28;20041;-67
2022/06/20 15:21:36;;;;;;;11.18;2.70;;;;;;;;;;4966225;28;20038;-67